Long Valley, NJ (07853)

3:26 AM EDT on July 01, 2015 (GMT -0400)
Pleasant Grove | | Change Station
CLOSE
Current Station
Personal Weather Station
Location: Long Valley, NJ
Elevation: 994 ft
Nearby Weather Stations

Elev 994 ft 40.78 °N, 74.83 °W | Updated 1 minute ago

Overcast
Overcast
70.4 °F
Feels Like 70.4 °F
N
2.0
Wind Variable Wind from SW
Gusts 5.0 mph

Today
High -- | Low -- °F
--% Chance of Precip.
Yesterday
High -- | Low -- °F
Precip. -- in
5:31 AM 8:34 PM
Waxing Gibbous, 99% visible
Pressure 29.76 in
Visibility 2.5 miles
Clouds Mostly Cloudy 1500 ft
Overcast 2100 ft
Dew Point 70 °F
Humidity 97%
Rainfall -999.00 in
Snow Depth Not available.
UV 0 out of 12
Pollen 4.00 out of 12
Air Quality Not available.
Flu Activity Not available.
SPECI KSMQ 010724Z AUTO 00000KT 2 1/2SM VCTS -RA BR BKN015 OVC021 22/21 A2976 RMK AO2 VIS 1V5 LTG DSNT S-NW RAB19 P0003 T02220211

More Conditions Fewer Conditions

Pressure 29.76 in
Visibility 2.5 miles
Clouds Mostly Cloudy 1500 ft
Overcast 2100 ft
Dew Point 70 °F
Humidity 97%
Rainfall -999.00 in
Snow Depth Not available.
UV 0 out of 12
Pollen 4.00 out of 12
Air Quality Not available.
Flu Activity Not available.
SPECI KSMQ 010724Z AUTO 00000KT 2 1/2SM VCTS -RA BR BKN015 OVC021 22/21 A2976 RMK AO2 VIS 1V5 LTG DSNT S-NW RAB19 P0003 T02220211

More Conditions Fewer Conditions

10-Day Weather Forecast

×

Almanac

Astronomy

Jul. 01, 2015 Rise Set
Actual Time
Civil Twilight
Nautical Twilight
Astronomical Twilight
Moon
Length of Visible Light
Length of Day
Tomorrow will be .
, % of the Moon is Illuminated

Today's Extremes

State Highs State Lows

Community

WunderPhotos

Upload Photos

1,834,163 photos uploaded!

WunderBlogs® & News

Nearby

Air Quality

  Air Quality AQ Index Pollutant
Not available.

Snow Depth

Station Depth Elevation

Earthquake Activity

City Distance Mag. Time & Date
Minimum magnitude displayed is 2.5.

Coastal Water Temperatures

Place Temperature

Stations

Nearby Weather Stations

Station Location Temp. Windchill Dew Point Humidity Wind Precip. Elev Updated Type